Washington, District of Columbia
Traffic Map
Current Weather Conditions
Washington, District of Columbia
Clear
Clear
72°
Feels Like: 72°
Wind Chill: 72° Ceiling: Unl
Heat Index: 72° Visibility: 10mi
Dew Point: 60° Wind: 3mph
Humidity: 66% Direction: 230° (SW)
Pressure: 30.3in Gusts: 0mph
Raw Report DataKDCA 240452Z 23003KT 10SM CLR 22/16 A3030 RMK AO2 SLP260 T02220156 402890194
Traffic Incident Summary
Active as of:
Severity:
Category:
InformationThere was an issue retrieving the traffic information for this location. Please try a different location or try again shortly.
Advertisements
Track Severe Weather on mobile